Time;durP1;ratioP1;P1;durP2;ratioP2;P2;SDS_P1;SDS_P2;PMS_P1;PMS_P2;Temp;Humidity;BMP_temperature;BMP_pressure;BME280_temperature;BME280_humidity;BME280_pressure;Samples;Min_cycle;Max_cycle;Signal;HPM_P1;HPM_P2
2021/04/04 00:00:27;;;;;;;63.35;36.58;;;;;;;1.30;78.12;100225.73;1842787;77;21100;-71
2021/04/04 00:02:54;;;;;;;83.90;43.20;;;;;;;1.27;78.04;100226.95;1847922;77;21419;-71
2021/04/04 00:05:22;;;;;;;68.45;36.53;;;;;;;1.25;77.99;100221.09;1842030;77;21143;-70
2021/04/04 00:07:51;;;;;;;75.17;39.48;;;;;;;1.25;77.98;100225.05;1790916;78;21454;-71
2021/04/04 00:10:19;;;;;;;71.72;38.48;;;;;;;1.24;77.96;100224.72;1823925;78;21630;-71
2021/04/04 00:12:47;;;;;;;70.28;35.95;;;;;;;1.22;77.91;100220.67;1812534;78;21199;-71
2021/04/04 00:15:16;;;;;;;63.42;35.10;;;;;;;1.20;77.81;100222.72;1813566;77;21220;-71
2021/04/04 00:17:45;;;;;;;81.25;41.33;;;;;;;1.15;77.71;100223.30;1820481;78;21220;-72
2021/04/04 00:20:17;;;;;;;79.58;41.98;;;;;;;1.07;77.71;100220.38;1819102;78;21215;-70
2021/04/04 00:22:46;;;;;;;74.60;40.28;;;;;;;1.04;77.74;100219.47;1827380;78;21186;-72
2021/04/04 00:25:15;;;;;;;72.55;36.10;;;;;;;1.01;77.73;100221.19;1820428;78;21358;-71
2021/04/04 00:27:43;;;;;;;66.72;36.48;;;;;;;0.98;77.74;100220.27;1813965;78;21366;-69
2021/04/04 00:30:14;;;;;;;58.65;33.00;;;;;;;0.92;77.71;100219.77;1828573;78;21155;-70
2021/04/04 00:32:42;;;;;;;59.95;33.75;;;;;;;0.88;77.64;100222.50;1819197;78;21206;-70
2021/04/04 00:35:17;;;;;;;65.97;35.63;;;;;;;0.86;77.55;100217.45;1804861;78;21148;-71
2021/04/04 00:37:47;;;;;;;68.85;37.85;;;;;;;0.82;77.47;100214.09;1814476;78;21187;-71
2021/04/04 00:40:26;;;;;;;70.42;38.10;;;;;;;0.76;77.38;100213.10;1807668;78;22345;-71
2021/04/04 00:42:54;;;;;;;59.53;32.53;;;;;;;0.68;77.31;100207.52;1813960;78;21156;-73
2021/04/04 00:45:28;;;;;;;67.30;37.78;;;;;;;0.64;77.27;100205.50;1824339;78;21131;-72
2021/04/04 00:47:56;;;;;;;67.40;36.15;;;;;;;0.60;77.25;100210.34;1839856;77;21521;-72
2021/04/04 00:50:28;;;;;;;80.83;43.83;;;;;;;0.55;77.26;100215.89;1814614;78;21116;-72
2021/04/04 00:52:57;;;;;;;106.07;55.25;;;;;;;0.55;77.41;100221.14;1773328;79;21457;-71
2021/04/04 00:55:25;;;;;;;117.50;60.67;;;;;;;0.55;77.70;100215.38;1822424;78;21127;-72
2021/04/04 00:57:53;;;;;;;109.60;57.33;;;;;;;0.54;77.98;100221.66;1810393;78;21181;-71
2021/04/04 01:00:27;;;;;;;80.83;46.05;;;;;;;0.59;78.44;100228.45;1818205;78;21171;-71
2021/04/04 01:02:56;;;;;;;68.85;41.05;;;;;;;0.64;78.86;100227.84;1819540;78;21239;-73
2021/04/04 01:05:31;;;;;;;72.40;41.15;;;;;;;0.70;79.35;100228.36;1829914;78;21976;-76
2021/04/04 01:07:58;;;;;;;68.57;40.20;;;;;;;0.76;79.77;100229.36;1820316;78;21714;-72
2021/04/04 01:10:33;;;;;;;60.90;38.98;;;;;;;0.85;80.05;100229.47;1818973;78;21709;-72
2021/04/04 01:13:21;;;;;;;57.75;35.23;;;;;;;0.91;80.28;100229.48;1812825;78;21153;-72
2021/04/04 01:16:16;;;;;;;54.77;33.63;;;;;;;0.99;80.42;100227.17;1801156;78;21137;-72
2021/04/04 01:19:05;;;;;;;59.53;36.20;;;;;;;1.04;80.65;100238.39;1818339;78;21327;-71
2021/04/04 01:21:45;;;;;;;73.75;42.98;;;;;;;1.06;80.88;100235.87;1816792;78;21184;-71
2021/04/04 01:24:40;;;;;;;89.52;49.23;;;;;;;1.07;81.08;100226.95;1800286;78;21109;-71
2021/04/04 01:27:43;;;;;;;76.37;44.30;;;;;;;1.09;81.26;100238.09;1812189;77;21278;-72
2021/04/04 01:30:12;;;;;;;78.28;43.48;;;;;;;1.15;81.36;100232.52;1837041;77;21128;-73
2021/04/04 01:32:41;;;;;;;76.60;43.38;;;;;;;1.21;81.41;100242.73;1807964;78;21363;-72
2021/04/04 01:35:11;;;;;;;89.03;50.43;;;;;;;1.22;81.42;100243.03;1839523;77;21136;-72
2021/04/04 01:37:40;;;;;;;78.10;48.02;;;;;;;1.18;81.33;100250.52;1835174;77;21570;-72
2021/04/04 01:40:11;;;;;;;74.37;44.60;;;;;;;1.15;81.27;100253.08;1844272;77;21057;-72
2021/04/04 01:42:39;;;;;;;66.92;40.38;;;;;;;1.11;81.20;100247.89;1849033;77;21167;-71
2021/04/04 01:45:08;;;;;;;58.83;34.95;;;;;;;1.07;81.19;100249.83;1824250;77;21194;-72
2021/04/04 01:47:36;;;;;;;51.55;31.37;;;;;;;1.03;81.14;100248.62;1793428;78;21248;-71
2021/04/04 01:50:06;;;;;;;53.00;32.30;;;;;;;1.00;81.00;100243.76;1812290;78;21585;-72
2021/04/04 01:52:35;;;;;;;50.60;29.63;;;;;;;0.98;80.91;100246.58;1794078;78;22085;-71
2021/04/04 01:55:05;;;;;;;48.45;29.55;;;;;;;0.99;80.77;100248.69;1770772;80;21234;-72
2021/04/04 01:57:33;;;;;;;47.70;27.58;;;;;;;0.98;80.42;100245.26;1828836;77;21388;-71
2021/04/04 02:00:04;;;;;;;46.50;27.17;;;;;;;0.99;80.17;100244.75;1785135;78;21170;-70
2021/04/04 02:02:33;;;;;;;43.13;25.72;;;;;;;1.00;79.93;100244.56;1812610;77;21227;-71
2021/04/04 02:05:02;;;;;;;42.20;25.27;;;;;;;1.01;79.70;100237.48;1839645;77;21642;-71
2021/04/04 02:07:30;;;;;;;42.08;24.02;;;;;;;1.02;79.44;100235.14;1844451;77;21640;-72
2021/04/04 02:09:57;;;;;;;39.18;20.97;;;;;;;1.02;79.16;100245.19;1811584;77;21396;-72
2021/04/04 02:12:25;;;;;;;42.08;24.43;;;;;;;1.01;78.88;100242.23;1806655;78;21211;-72
2021/04/04 02:14:53;;;;;;;38.20;22.07;;;;;;;1.02;78.67;100246.98;1800167;79;21572;-72
2021/04/04 02:17:21;;;;;;;41.45;24.12;;;;;;;1.05;78.46;100250.02;1807787;78;21215;-71
2021/04/04 02:19:49;;;;;;;36.60;22.07;;;;;;;1.06;78.20;100249.02;1811630;78;22404;-71
2021/04/04 02:22:17;;;;;;;40.03;22.93;;;;;;;1.08;77.97;100252.23;1813842;77;21437;-72
2021/04/04 02:24:45;;;;;;;37.23;22.67;;;;;;;1.11;77.78;100250.52;1816866;77;21830;-72
2021/04/04 02:27:13;;;;;;;33.98;21.30;;;;;;;1.17;77.58;100250.23;1815992;77;21159;-72
2021/04/04 02:29:41;;;;;;;34.40;21.25;;;;;;;1.23;77.37;100249.42;1804407;78;22184;-70
2021/04/04 02:32:09;;;;;;;35.33;20.40;;;;;;;1.29;77.17;100251.75;1795876;78;21149;-71
2021/04/04 02:34:40;;;;;;;36.42;21.50;;;;;;;1.35;77.05;100252.23;1845493;77;21776;-71
2021/04/04 02:37:11;;;;;;;35.13;20.08;;;;;;;1.40;76.88;100244.55;1806135;78;21199;-70
2021/04/04 02:39:52;;;;;;;34.67;20.68;;;;;;;1.46;76.79;100246.37;1804180;78;21144;-71
2021/04/04 02:42:22;;;;;;;27.95;16.25;;;;;;;1.54;76.74;100251.91;1795664;78;21186;-71
2021/04/04 02:44:52;;;;;;;32.20;20.12;;;;;;;1.61;76.67;100244.33;1816693;77;21173;-71
2021/04/04 02:47:31;;;;;;;28.05;16.77;;;;;;;1.67;76.64;100247.13;1766924;79;22784;-71
2021/04/04 02:50:08;;;;;;;29.20;18.13;;;;;;;1.75;76.50;100245.10;1798829;77;22658;-71
2021/04/04 02:52:39;;;;;;;30.25;18.57;;;;;;;1.72;76.34;100249.97;1777962;79;21639;-71
2021/04/04 02:55:08;;;;;;;32.03;18.35;;;;;;;1.74;76.23;100251.36;1784498;79;21374;-71
2021/04/04 02:57:36;;;;;;;34.50;19.27;;;;;;;1.77;76.10;100248.83;1786841;79;21243;-71
2021/04/04 03:00:07;;;;;;;29.82;19.02;;;;;;;1.80;75.97;100255.00;1784067;79;21180;-71
2021/04/04 03:02:37;;;;;;;28.77;18.10;;;;;;;1.83;75.94;100260.66;1752261;79;21239;-71
2021/04/04 03:05:08;;;;;;;33.92;20.75;;;;;;;1.86;76.00;100260.77;1739391;81;21201;-72
2021/04/04 03:07:40;;;;;;;31.00;19.52;;;;;;;1.86;76.15;100272.61;1786778;79;22275;-71
2021/04/04 03:10:09;;;;;;;35.13;21.15;;;;;;;1.82;76.20;100260.88;1774702;80;21223;-71
2021/04/04 03:12:39;;;;;;;31.62;18.92;;;;;;;1.78;76.20;100263.13;1767671;80;21217;-72
2021/04/04 03:15:11;;;;;;;26.65;17.10;;;;;;;1.77;76.14;100261.48;1770418;79;21170;-71
2021/04/04 03:17:41;;;;;;;28.77;18.37;;;;;;;1.76;76.03;100259.07;1774473;79;21515;-72
2021/04/04 03:20:12;;;;;;;28.07;17.77;;;;;;;1.74;75.84;100259.27;1773333;79;21391;-71
2021/04/04 03:22:43;;;;;;;30.30;18.77;;;;;;;1.75;75.68;100261.41;1760152;80;21210;-71
2021/04/04 03:25:13;;;;;;;29.63;18.12;;;;;;;1.71;75.68;100253.60;1765355;80;21680;-71
2021/04/04 03:27:45;;;;;;;31.37;19.32;;;;;;;1.73;75.75;100260.28;1790809;79;21203;-71
2021/04/04 03:30:35;;;;;;;27.73;18.27;;;;;;;1.78;75.86;100258.37;1769698;80;21141;-71
2021/04/04 03:33:05;;;;;;;30.92;18.27;;;;;;;1.80;75.92;100258.44;1786005;79;21380;-70
2021/04/04 03:35:34;;;;;;;30.48;17.80;;;;;;;1.82;75.95;100262.20;1768996;80;21716;-70
2021/04/04 03:38:04;;;;;;;35.73;20.70;;;;;;;1.80;76.00;100261.59;1785861;79;21620;-71
2021/04/04 03:40:31;;;;;;;38.75;24.18;;;;;;;1.76;76.11;100261.19;1793470;79;21231;-72
2021/04/04 03:43:09;;;;;;;36.65;22.25;;;;;;;1.73;76.16;100264.75;1767132;80;21132;-71
2021/04/04 03:45:37;;;;;;;38.70;23.38;;;;;;;1.71;76.21;100266.77;1772374;80;21374;-71
2021/04/04 03:48:08;;;;;;;39.00;23.12;;;;;;;1.72;76.30;100260.50;1750883;80;21553;-71
2021/04/04 03:50:36;;;;;;;38.85;23.05;;;;;;;1.76;76.35;100266.45;1798499;79;21136;-71
2021/04/04 03:53:05;;;;;;;37.03;21.60;;;;;;;1.76;76.35;100257.23;1764919;81;21131;-73
2021/04/04 03:55:34;;;;;;;35.52;21.12;;;;;;;1.75;76.41;100256.95;1777291;79;21182;-71
2021/04/04 03:58:07;;;;;;;35.88;22.75;;;;;;;1.70;76.43;100256.75;1739227;80;21393;-70
2021/04/04 04:00:36;;;;;;;31.42;20.37;;;;;;;1.65;76.35;100259.20;1771823;79;21177;-72
2021/04/04 04:03:05;;;;;;;29.70;18.92;;;;;;;1.66;76.32;100258.69;1763541;80;21663;-71
2021/04/04 04:05:33;;;;;;;32.83;19.92;;;;;;;1.70;76.24;100263.84;1711071;80;21702;-71
2021/04/04 04:08:02;;;;;;;28.65;18.32;;;;;;;1.77;76.07;100268.58;1794844;79;21120;-71
2021/04/04 04:10:30;;;;;;;29.35;18.30;;;;;;;1.85;75.90;100273.64;1797865;79;21390;-71
2021/04/04 04:12:59;;;;;;;22.80;14.65;;;;;;;1.90;75.76;100282.22;1808364;79;21604;-72
2021/04/04 04:15:28;;;;;;;25.55;16.17;;;;;;;1.99;75.76;100271.77;1807721;79;21568;-71
2021/04/04 04:17:57;;;;;;;27.32;17.02;;;;;;;2.11;75.64;100274.87;1746498;80;21201;-72
2021/04/04 04:20:26;;;;;;;27.48;17.85;;;;;;;2.26;75.61;100279.06;1771307;80;21636;-72
2021/04/04 04:22:58;;;;;;;27.58;17.50;;;;;;;2.37;75.61;100277.11;1770145;79;22301;-72
2021/04/04 04:25:27;;;;;;;28.70;17.27;;;;;;;2.48;75.62;100275.13;1776619;80;21759;-72
2021/04/04 04:27:55;;;;;;;30.48;17.10;;;;;;;2.58;75.61;100275.47;1778622;80;21128;-72
2021/04/04 04:30:24;;;;;;;25.43;16.87;;;;;;;2.66;75.64;100279.68;1768625;80;21211;-72
2021/04/04 04:33:02;;;;;;;25.60;15.83;;;;;;;2.77;75.54;100290.09;1776778;80;21164;-71
2021/04/04 04:35:30;;;;;;;24.82;15.53;;;;;;;2.88;75.37;100292.03;1792785;79;21360;-72
2021/04/04 04:37:58;;;;;;;25.80;15.25;;;;;;;3.01;75.22;100290.63;1786725;80;21227;-72
2021/04/04 04:40:26;;;;;;;22.02;13.85;;;;;;;3.11;74.85;100289.35;1776416;79;21143;-70
2021/04/04 04:42:56;;;;;;;20.00;13.38;;;;;;;3.15;74.48;100290.53;1782742;80;21211;-71
2021/04/04 04:45:36;;;;;;;18.35;11.73;;;;;;;3.20;74.10;100294.16;1780588;80;21647;-70
2021/04/04 04:48:05;;;;;;;19.40;12.07;;;;;;;3.23;73.72;100293.73;1772901;79;21863;-70
2021/04/04 04:50:37;;;;;;;19.12;11.83;;;;;;;3.24;73.30;100299.81;1774832;79;21219;-71
2021/04/04 04:53:05;;;;;;;17.35;10.48;;;;;;;3.27;73.05;100297.55;1782465;79;21188;-71
2021/04/04 04:55:33;;;;;;;18.42;11.30;;;;;;;3.31;72.82;100300.56;1785629;80;21216;-71
2021/04/04 04:58:03;;;;;;;18.57;11.63;;;;;;;3.33;72.64;100295.89;1783550;78;21183;-69
2021/04/04 05:00:32;;;;;;;18.52;12.00;;;;;;;3.39;72.52;100304.27;1743404;79;22152;-71
2021/04/04 05:03:01;;;;;;;18.12;11.50;;;;;;;3.44;72.44;100304.41;1774052;79;21216;-72
2021/04/04 05:05:29;;;;;;;16.87;10.40;;;;;;;3.49;72.27;100302.46;1774499;79;21165;-72
2021/04/04 05:07:57;;;;;;;17.95;10.28;;;;;;;3.49;71.96;100305.91;1778672;80;21215;-71
2021/04/04 05:10:27;;;;;;;15.15;10.13;;;;;;;3.51;71.78;100309.13;1747102;80;21231;-72
2021/04/04 05:13:01;;;;;;;12.05;8.05;;;;;;;3.55;71.49;100317.93;1774146;79;21281;-72
2021/04/04 05:15:29;;;;;;;17.90;9.58;;;;;;;3.59;71.26;100313.86;1781907;79;21620;-72
2021/04/04 05:17:58;;;;;;;14.25;9.03;;;;;;;3.66;71.01;100313.28;1784010;80;21187;-70
2021/04/04 05:20:26;;;;;;;14.58;9.00;;;;;;;3.72;70.85;100313.22;1753692;79;21195;-71
2021/04/04 05:22:54;;;;;;;14.68;8.78;;;;;;;3.81;70.69;100309.77;1781497;79;21640;-70
2021/04/04 05:25:22;;;;;;;13.30;8.48;;;;;;;3.88;70.54;100313.17;1787030;80;21290;-71
2021/04/04 05:27:50;;;;;;;15.50;8.30;;;;;;;3.97;70.51;100311.84;1738816;80;21167;-71
2021/04/04 05:30:20;;;;;;;14.18;8.93;;;;;;;4.07;70.55;100313.97;1782315;79;21212;-72
2021/04/04 05:32:49;;;;;;;15.45;8.75;;;;;;;4.20;70.57;100313.83;1779281;80;21151;-71
2021/04/04 05:35:22;;;;;;;15.25;8.78;;;;;;;4.36;70.58;100311.63;1783837;80;21176;-71
2021/04/04 05:37:51;;;;;;;18.75;9.65;;;;;;;4.52;70.44;100318.16;1801374;79;21369;-71
2021/04/04 05:40:27;;;;;;;20.72;10.28;;;;;;;4.65;70.16;100321.43;1774082;80;21207;-71
2021/04/04 05:43:00;;;;;;;22.85;9.83;;;;;;;4.78;70.09;100320.45;1776047;80;21143;-71
2021/04/04 05:45:48;;;;;;;16.70;8.80;;;;;;;4.93;70.02;100321.35;1773359;80;21180;-71
2021/04/04 05:48:40;;;;;;;16.07;7.80;;;;;;;5.08;69.63;100320.43;1760339;79;21617;-71
2021/04/04 05:51:39;;;;;;;10.20;6.85;;;;;;;5.28;69.11;100316.67;1759766;80;22326;-72
2021/04/04 05:54:27;;;;;;;9.95;6.62;;;;;;;5.49;68.36;100310.02;1777823;79;21196;-72
2021/04/04 05:57:07;;;;;;;13.35;7.20;;;;;;;5.61;67.08;100316.94;1765429;80;21202;-72
2021/04/04 05:59:44;;;;;;;13.72;8.13;;;;;;;5.65;66.66;100315.95;1778709;78;21168;-72
2021/04/04 06:02:39;;;;;;;11.45;7.65;;;;;;;5.67;65.95;100324.50;1769463;80;21187;-72
2021/04/04 06:05:54;;;;;;;12.90;7.58;;;;;;;5.69;65.71;100325.58;1742958;80;22787;-72
2021/04/04 06:08:56;;;;;;;12.68;7.70;;;;;;;5.74;65.60;100318.55;1772005;80;21178;-72
2021/04/04 06:11:51;;;;;;;12.25;7.70;;;;;;;5.84;65.19;100323.28;1766353;80;21216;-72
2021/04/04 06:14:49;;;;;;;11.33;6.95;;;;;;;5.88;64.91;100331.85;1776936;80;21621;-72
2021/04/04 06:17:37;;;;;;;10.43;6.83;;;;;;;5.97;64.54;100332.88;1759234;79;21174;-72
2021/04/04 06:20:24;;;;;;;10.88;7.22;;;;;;;6.02;64.33;100335.63;1776056;80;21220;-72
2021/04/04 06:23:07;;;;;;;11.75;6.97;;;;;;;6.08;64.17;100337.34;1771431;79;21199;-71
2021/04/04 06:25:46;;;;;;;10.98;6.72;;;;;;;6.19;64.19;100341.84;1790910;79;21204;-71
2021/04/04 06:28:43;;;;;;;11.43;6.55;;;;;;;6.31;63.82;100341.81;1790451;78;21120;-71
2021/04/04 06:31:38;;;;;;;10.50;6.22;;;;;;;6.43;63.60;100338.63;1757558;80;21688;-72
2021/04/04 06:34:19;;;;;;;9.48;5.55;;;;;;;6.56;63.41;100343.66;1770784;80;21376;-72
2021/04/04 06:37:24;;;;;;;7.85;5.03;;;;;;;6.66;62.57;100339.59;1763670;80;21242;-71
2021/04/04 06:40:12;;;;;;;8.55;5.35;;;;;;;6.74;62.15;100340.53;1765314;80;21199;-71
2021/04/04 06:43:10;;;;;;;8.28;4.92;;;;;;;6.83;61.94;100339.64;1768611;80;21176;-71
2021/04/04 06:45:59;;;;;;;9.00;5.47;;;;;;;6.93;61.70;100346.47;1769915;79;21208;-72
2021/04/04 06:48:55;;;;;;;8.98;5.50;;;;;;;6.95;61.24;100339.08;1764199;80;21504;-72
2021/04/04 06:51:53;;;;;;;11.80;4.90;;;;;;;6.98;61.14;100342.59;1770116;79;21166;-72
2021/04/04 06:54:48;;;;;;;9.15;4.78;;;;;;;7.01;61.32;100343.45;1758872;80;21199;-72
2021/04/04 06:57:59;;;;;;;8.55;5.42;;;;;;;7.03;61.18;100353.29;1739537;80;21676;-72
2021/04/04 07:00:51;;;;;;;9.00;5.53;;;;;;;6.98;61.08;100350.03;1771463;79;21216;-71
2021/04/04 07:03:20;;;;;;;7.28;4.37;;;;;;;6.92;61.09;100357.62;1778394;79;21457;-71
2021/04/04 07:06:12;;;;;;;8.83;4.97;;;;;;;6.85;61.19;100354.83;1777477;79;21204;-72
2021/04/04 07:09:20;;;;;;;8.25;5.17;;;;;;;6.80;61.31;100356.32;1786464;79;21142;-72
2021/04/04 07:12:31;;;;;;;8.98;4.92;;;;;;;6.79;61.38;100360.03;1779755;79;21084;-71
2021/04/04 07:15:53;;;;;;;8.80;4.78;;;;;;;6.86;61.60;100359.89;1779199;79;21177;-73
2021/04/04 07:18:43;;;;;;;;;;;;;;;6.94;61.58;100365.33;1769833;80;21265;-72
2021/04/04 07:21:28;;;;;;;9.23;5.83;;;;;;;6.96;61.54;100370.70;1803242;79;20243;-72
2021/04/04 07:24:35;;;;;;;11.55;6.45;;;;;;;6.97;61.36;100368.84;1769765;80;21193;-71
2021/04/04 07:27:14;;;;;;;7.55;5.20;;;;;;;6.96;61.09;100365.91;1769005;80;21611;-71
2021/04/04 07:30:03;;;;;;;8.63;5.10;;;;;;;6.91;61.24;100378.58;1770168;80;21189;-72
2021/04/04 07:32:48;;;;;;;8.25;4.97;;;;;;;6.93;61.37;100367.70;1767999;80;21376;-71
2021/04/04 07:35:20;;;;;;;8.13;5.45;;;;;;;7.01;61.35;100373.45;1760145;79;21245;-72
2021/04/04 07:38:08;;;;;;;7.90;4.80;;;;;;;7.19;61.29;100372.97;1761623;79;21172;-71
2021/04/04 07:40:54;;;;;;;8.08;5.22;;;;;;;7.34;60.67;100371.08;1764637;80;21210;-71
2021/04/04 07:43:32;;;;;;;9.98;4.97;;;;;;;7.47;60.18;100373.45;1803023;79;21188;-71
2021/04/04 07:46:15;;;;;;;7.55;4.90;;;;;;;7.56;59.71;100373.84;1778126;80;21207;-70
2021/04/04 07:48:54;;;;;;;7.80;4.95;;;;;;;7.59;59.19;100376.83;1802319;79;21180;-72
2021/04/04 07:51:27;;;;;;;8.60;5.00;;;;;;;7.62;58.96;100381.66;1788775;79;21189;-73
2021/04/04 07:54:11;;;;;;;7.55;4.28;;;;;;;7.64;59.06;100384.89;1798608;79;21140;-72
2021/04/04 07:56:53;;;;;;;8.08;5.47;;;;;;;7.73;59.04;100387.44;1771332;79;21173;-72
2021/04/04 07:59:34;;;;;;;7.08;4.70;;;;;;;7.82;58.67;100381.70;1763168;80;21372;-72
2021/04/04 08:02:29;;;;;;;7.40;5.10;;;;;;;7.86;58.38;100379.63;1742166;80;21221;-71
2021/04/04 08:05:07;;;;;;;8.40;4.58;;;;;;;7.93;58.48;100378.13;1772981;79;21506;-73
2021/04/04 08:07:44;;;;;;;9.30;5.40;;;;;;;8.14;58.08;100389.36;1766546;80;21274;-72
2021/04/04 08:10:34;;;;;;;8.33;5.22;;;;;;;8.35;57.57;100380.32;1768693;80;21141;-71
2021/04/04 08:13:17;;;;;;;9.08;4.95;;;;;;;8.61;57.32;100382.28;1772561;79;21405;-73
2021/04/04 08:16:13;;;;;;;7.80;5.08;;;;;;;8.89;56.33;100377.82;1777276;79;21216;-71
2021/04/04 08:18:41;;;;;;;8.45;5.17;;;;;;;9.05;55.26;100379.59;1773816;80;21640;-72
2021/04/04 08:21:21;;;;;;;7.30;4.42;;;;;;;9.07;54.78;100372.14;1766830;79;21168;-72
2021/04/04 08:24:06;;;;;;;6.72;4.53;;;;;;;9.09;54.53;100371.37;1769700;80;21136;-72
2021/04/04 08:26:50;;;;;;;6.80;4.35;;;;;;;9.09;54.38;100372.70;1774261;79;21363;-71
2021/04/04 08:29:23;;;;;;;;;;;;;;;9.11;54.36;100376.43;1768380;80;21227;-72
2021/04/04 08:32:08;;;;;;;6.45;4.47;;;;;;;9.07;53.93;100373.47;1777863;80;20293;-72
2021/04/04 08:34:55;;;;;;;7.92;4.03;;;;;;;8.91;54.11;100374.36;1773323;79;21215;-71
2021/04/04 08:37:34;;;;;;;6.35;3.90;;;;;;;8.85;54.29;100370.03;1765037;80;21164;-72
2021/04/04 08:40:07;;;;;;;6.08;4.08;;;;;;;8.82;54.35;100369.22;1797349;79;21382;-72
2021/04/04 08:42:35;;;;;;;7.25;4.10;;;;;;;8.84;54.18;100369.23;1778835;80;21655;-72
2021/04/04 08:45:11;;;;;;;6.90;4.12;;;;;;;8.87;54.16;100365.27;1766956;80;21292;-71
2021/04/04 08:47:42;;;;;;;5.85;3.72;;;;;;;8.89;53.88;100366.64;1742098;80;21185;-71
2021/04/04 08:50:18;;;;;;;7.87;4.37;;;;;;;8.86;54.05;100360.47;1750432;79;21215;-72
2021/04/04 08:52:52;;;;;;;7.08;4.30;;;;;;;8.82;54.01;100367.89;1755580;80;21496;-71
2021/04/04 08:55:26;;;;;;;6.33;4.05;;;;;;;8.75;54.12;100367.26;1790074;79;21208;-72
2021/04/04 08:57:57;;;;;;;7.25;4.58;;;;;;;8.72;54.40;100362.42;1766223;80;21181;-71
2021/04/04 09:00:27;;;;;;;9.55;4.70;;;;;;;8.71;54.62;100365.63;1768113;80;21223;-71
2021/04/04 09:03:08;;;;;;;7.65;4.55;;;;;;;8.67;54.51;100359.99;1756593;80;21172;-72
2021/04/04 09:05:36;;;;;;;7.72;4.25;;;;;;;8.71;54.99;100360.30;1778949;79;21228;-72
2021/04/04 09:08:05;;;;;;;5.83;4.15;;;;;;;8.87;55.04;100359.41;1777464;80;21648;-71
2021/04/04 09:10:38;;;;;;;7.25;4.50;;;;;;;9.06;54.73;100353.22;1768348;80;21236;-72
2021/04/04 09:13:12;;;;;;;5.65;4.05;;;;;;;9.14;53.83;100355.95;1777774;79;21179;-71
2021/04/04 09:15:54;;;;;;;7.62;4.60;;;;;;;9.27;54.08;100352.07;1769541;79;21207;-71
2021/04/04 09:18:25;;;;;;;5.30;3.62;;;;;;;9.53;53.59;100349.09;1779699;79;21220;-72
2021/04/04 09:21:08;;;;;;;6.50;3.70;;;;;;;9.87;52.65;100345.59;1785624;79;21215;-71
2021/04/04 09:23:37;;;;;;;5.42;3.40;;;;;;;10.06;51.01;100337.97;1784838;79;21163;-71
2021/04/04 09:26:08;;;;;;;5.95;3.90;;;;;;;10.23;50.83;100335.95;1781992;79;21184;-72
2021/04/04 09:28:40;;;;;;;6.33;3.55;;;;;;;10.42;50.44;100331.50;1791984;79;21557;-72
2021/04/04 09:31:21;;;;;;;5.00;3.10;;;;;;;10.49;48.67;100330.72;1797382;79;21364;-72
2021/04/04 09:34:04;;;;;;;5.35;3.30;;;;;;;10.51;47.99;100329.41;1772061;80;21196;-72
2021/04/04 09:36:44;;;;;;;5.03;3.22;;;;;;;10.54;47.60;100326.21;1794225;79;21204;-71
2021/04/04 09:39:29;;;;;;;4.70;3.10;;;;;;;10.55;47.38;100329.14;1762139;79;21188;-72
2021/04/04 09:41:58;;;;;;;4.85;3.00;;;;;;;10.61;47.23;100324.63;1777565;79;21169;-71
2021/04/04 09:44:33;;;;;;;5.30;3.13;;;;;;;10.70;46.66;100323.59;1776666;80;21231;-71
2021/04/04 09:47:04;;;;;;;6.37;4.60;;;;;;;10.75;46.79;100320.92;1789329;79;21489;-71
2021/04/04 09:49:48;;;;;;;6.42;4.92;;;;;;;10.85;46.78;100319.61;1777359;80;21368;-72
2021/04/04 09:52:28;;;;;;;5.93;3.60;;;;;;;10.83;47.15;100324.43;1776111;80;21643;-72
2021/04/04 09:55:09;;;;;;;7.10;4.40;;;;;;;10.72;46.94;100321.45;1783074;79;21429;-72
2021/04/04 09:57:45;;;;;;;5.80;4.10;;;;;;;10.44;47.19;100331.52;1761621;79;22220;-71
2021/04/04 10:00:24;;;;;;;5.97;3.95;;;;;;;10.19;49.31;100347.38;1770896;79;21522;-72
2021/04/04 10:02:53;;;;;;;5.37;4.10;;;;;;;9.83;50.94;100331.97;1764933;80;21152;-73
2021/04/04 10:08:18;;;;;;;5.90;3.83;;;;;;;8.96;53.28;100345.13;1822464;77;22771;-70
2021/04/04 10:10:52;;;;;;;6.70;4.22;;;;;;;8.60;54.54;100354.59;1812838;77;21176;-72
2021/04/04 10:13:29;;;;;;;6.55;4.47;;;;;;;8.30;56.08;100371.76;1797043;79;22315;-72
2021/04/04 10:15:58;;;;;;;6.95;4.37;;;;;;;8.05;57.38;100360.77;1789902;77;21222;-71
2021/04/04 10:18:27;;;;;;;7.83;4.53;;;;;;;7.87;58.21;100349.35;1791926;78;21202;-70
2021/04/04 10:20:58;;;;;;;5.87;4.40;;;;;;;7.71;58.72;100368.25;1795707;79;21646;-72
2021/04/04 10:23:32;;;;;;;5.87;4.50;;;;;;;7.60;59.38;100365.66;1795540;77;21176;-72
2021/04/04 10:26:07;;;;;;;7.08;5.08;;;;;;;7.42;59.76;100370.17;1792908;77;21453;-72
2021/04/04 10:29:04;;;;;;;5.83;4.70;;;;;;;7.24;60.59;100367.23;1798834;78;22823;-72
2021/04/04 10:31:46;;;;;;;7.15;4.95;;;;;;;7.03;60.93;100379.84;1777558;80;21227;-71
2021/04/04 10:34:14;;;;;;;5.97;5.20;;;;;;;6.90;61.43;100374.30;1782368;79;21702;-73
2021/04/04 10:36:42;;;;;;;7.40;5.37;;;;;;;6.80;61.85;100382.87;1767593;80;21219;-72
2021/04/04 10:39:20;;;;;;;7.15;5.80;;;;;;;6.69;62.22;100383.72;1774275;80;21180;-71
2021/04/04 10:41:49;;;;;;;6.58;5.50;;;;;;;6.60;62.74;100390.95;1782095;78;21228;-73
2021/04/04 10:44:23;;;;;;;8.73;5.78;;;;;;;6.49;63.65;100393.41;1801022;78;21434;-72
2021/04/04 10:46:52;;;;;;;7.65;6.10;;;;;;;6.40;64.32;100403.28;1778291;78;21216;-71
2021/04/04 10:49:20;;;;;;;13.53;11.65;;;;;;;6.26;65.15;100406.17;1784851;79;21187;-72
2021/04/04 10:51:48;;;;;;;14.83;12.73;;;;;;;6.15;66.26;100403.52;1777854;80;22250;-72
2021/04/04 10:54:16;;;;;;;14.65;12.88;;;;;;;6.05;67.54;100412.05;1780359;78;21628;-72
2021/04/04 10:56:44;;;;;;;16.87;15.20;;;;;;;5.88;69.37;100405.27;1755704;79;21718;-71
2021/04/04 10:59:13;;;;;;;10.15;7.55;;;;;;;5.72;70.30;100412.56;1781647;78;21393;-71
2021/04/04 11:01:41;;;;;;;7.80;6.87;;;;;;;5.58;70.74;100411.45;1745756;80;21195;-71
2021/04/04 11:04:11;;;;;;;7.58;5.85;;;;;;;5.51;71.39;100413.92;1806359;78;21156;-71
2021/04/04 11:06:39;;;;;;;8.90;6.70;;;;;;;5.45;71.77;100405.03;1794901;78;21296;-70
2021/04/04 11:09:08;;;;;;;8.95;7.55;;;;;;;5.41;72.08;100395.92;1756432;80;21166;-71
2021/04/04 11:11:35;;;;;;;8.93;7.30;;;;;;;5.51;72.57;100388.23;1771834;79;21198;-71
2021/04/04 11:14:04;;;;;;;10.82;7.72;;;;;;;5.72;72.77;100386.88;1760457;78;21197;-71
2021/04/04 11:16:32;;;;;;;8.90;8.00;;;;;;;5.98;73.08;100379.02;1772490;80;21196;-71
2021/04/04 11:19:08;;;;;;;9.75;8.10;;;;;;;6.32;73.40;100363.34;1780351;79;21715;-72
2021/04/04 11:21:42;;;;;;;9.73;7.65;;;;;;;6.69;73.50;100365.67;1803344;78;21221;-71
2021/04/04 11:24:15;;;;;;;9.40;7.30;;;;;;;7.09;73.29;100364.29;1756633;79;21439;-71
2021/04/04 11:26:54;;;;;;;;;;;;;;;7.46;72.59;100362.00;1789514;78;21177;-72
2021/04/04 11:29:24;;;;;;;9.08;6.70;;;;;;;7.81;71.68;100353.51;1784334;78;20332;-72
2021/04/04 11:31:55;;;;;;;7.00;5.05;;;;;;;8.17;70.82;100354.29;1723267;81;21231;-71
2021/04/04 11:34:39;;;;;;;6.20;4.92;;;;;;;8.56;69.58;100351.62;1725492;81;21203;-72
2021/04/04 11:37:12;;;;;;;6.20;5.42;;;;;;;8.83;65.66;100346.33;1721401;81;26178;-72
2021/04/04 11:40:25;;;;;;;7.00;5.27;;;;;;;9.06;64.22;100345.22;1834576;77;22841;-72
2021/04/04 11:43:25;;;;;;;5.95;4.92;;;;;;;9.22;63.20;100337.38;1799072;79;21782;-71
2021/04/04 11:45:53;;;;;;;6.37;5.70;;;;;;;9.48;60.97;100331.20;1809571;78;21370;-71
2021/04/04 11:48:34;;;;;;;6.10;5.28;;;;;;;9.58;58.76;100329.95;1816366;77;21192;-72
2021/04/04 11:51:18;;;;;;;6.65;5.70;;;;;;;9.65;58.94;100327.06;1802646;78;28836;-72
2021/04/04 11:53:47;;;;;;;6.65;5.40;;;;;;;9.89;58.54;100326.14;1802992;78;21183;-72
2021/04/04 11:56:47;;;;;;;8.28;6.47;;;;;;;10.10;56.37;100324.38;1801212;78;21187;-73
2021/04/04 11:59:14;;;;;;;6.12;5.37;;;;;;;10.16;56.66;100323.34;1805132;77;21419;-72
2021/04/04 12:01:44;;;;;;;8.08;5.33;;;;;;;10.29;54.66;100312.22;1806148;78;21200;-71
2021/04/04 12:04:46;;;;;;;6.53;5.12;;;;;;;10.25;54.59;100307.65;1816126;78;21627;-71
2021/04/04 12:07:17;;;;;;;6.90;5.50;;;;;;;10.25;54.06;100309.78;1802689;78;21482;-71